Time;durP1;ratioP1;P1;durP2;ratioP2;P2;SDS_P1;SDS_P2;PMS_P1;PMS_P2;Temp;Humidity;BMP_temperature;BMP_pressure;BME280_temperature;BME280_humidity;BME280_pressure;Samples;Min_cycle;Max_cycle;Signal;HPM_P1;HPM_P2
2022/07/24 00:02:22;;;;;;;23.73;18.20;;;;;;;;;;761137;183;896455;-85
2022/07/24 00:04:48;;;;;;;18.23;16.33;;;;;;;;;;757473;184;626120;-84
2022/07/24 00:07:13;;;;;;;21.70;17.90;;;;;;;;;;759240;184;660565;-85
2022/07/24 00:09:39;;;;;;;21.97;17.20;;;;;;;;;;754649;181;657793;-84
2022/07/24 00:12:05;;;;;;;21.67;18.50;;;;;;;;;;760857;183;655875;-85
2022/07/24 00:14:31;;;;;;;22.10;19.23;;;;;;;;;;752245;184;635019;-85
2022/07/24 00:16:57;;;;;;;20.57;17.43;;;;;;;;;;757176;183;629012;-85
2022/07/24 00:19:23;;;;;;;20.73;16.80;;;;;;;;;;759435;183;626640;-85
2022/07/24 00:21:49;;;;;;;26.90;18.20;;;;;;;;;;755058;184;834050;-86
2022/07/24 00:24:15;;;;;;;18.10;16.17;;;;;;;;;;758551;183;633897;-85
2022/07/24 00:26:40;;;;;;;20.07;17.90;;;;;;;;;;754634;183;654415;-84
2022/07/24 00:29:06;;;;;;;21.47;17.83;;;;;;;;;;750656;184;622747;-85
2022/07/24 00:31:32;;;;;;;19.90;17.60;;;;;;;;;;759722;182;632054;-84
2022/07/24 00:33:58;;;;;;;19.50;17.30;;;;;;;;;;755717;184;636850;-86
2022/07/24 00:36:24;;;;;;;19.97;17.97;;;;;;;;;;750255;184;637701;-85
2022/07/24 00:38:50;;;;;;;20.90;18.67;;;;;;;;;;758533;184;629619;-84
2022/07/24 00:41:16;;;;;;;23.23;18.90;;;;;;;;;;760991;184;709911;-84
2022/07/24 00:43:47;;;;;;;23.60;19.03;;;;;;;;;;760243;184;664292;-84
2022/07/24 00:46:13;;;;;;;20.97;18.70;;;;;;;;;;758974;184;631260;-84
2022/07/24 00:48:39;;;;;;;24.30;18.87;;;;;;;;;;760433;184;620644;-84
2022/07/24 00:51:05;;;;;;;21.80;17.77;;;;;;;;;;751436;184;643941;-83
2022/07/24 00:53:31;;;;;;;25.00;18.20;;;;;;;;;;755118;184;627758;-84
2022/07/24 00:55:57;;;;;;;19.43;17.20;;;;;;;;;;763708;184;618580;-84
2022/07/24 00:58:23;;;;;;;24.67;19.57;;;;;;;;;;760307;181;913367;-84
2022/07/24 01:00:48;;;;;;;21.13;17.93;;;;;;;;;;755991;181;634907;-84
2022/07/24 01:03:14;;;;;;;20.93;18.17;;;;;;;;;;753548;183;632078;-85
2022/07/24 01:05:40;;;;;;;21.00;18.67;;;;;;;;;;762976;181;661063;-85
2022/07/24 01:08:06;;;;;;;20.13;17.77;;;;;;;;;;755484;184;777621;-84
2022/07/24 01:10:32;;;;;;;21.93;16.90;;;;;;;;;;755195;183;622895;-84
2022/07/24 01:12:58;;;;;;;21.07;18.80;;;;;;;;;;762476;183;635032;-85
2022/07/24 01:15:23;;;;;;;20.70;18.47;;;;;;;;;;760880;182;619888;-85
2022/07/24 01:17:49;;;;;;;21.47;19.13;;;;;;;;;;758312;183;649907;-84
2022/07/24 01:20:15;;;;;;;20.50;18.30;;;;;;;;;;759239;181;627444;-85
2022/07/24 01:22:41;;;;;;;21.47;19.17;;;;;;;;;;754462;184;623960;-85
2022/07/24 01:25:07;;;;;;;23.60;19.27;;;;;;;;;;753585;184;653547;-85
2022/07/24 01:27:33;;;;;;;20.17;17.80;;;;;;;;;;759241;184;620210;-85
2022/07/24 01:29:59;;;;;;;19.93;17.43;;;;;;;;;;760175;183;623141;-85
2022/07/24 01:32:25;;;;;;;23.27;18.30;;;;;;;;;;751381;184;628535;-85
2022/07/24 01:34:51;;;;;;;28.97;18.87;;;;;;;;;;753341;181;963206;-86
2022/07/24 01:37:17;;;;;;;22.97;17.87;;;;;;;;;;755060;184;660499;-85
2022/07/24 01:39:42;;;;;;;20.70;18.50;;;;;;;;;;752756;184;641441;-85
2022/07/24 01:42:08;;;;;;;20.10;17.90;;;;;;;;;;751112;185;633170;-84
2022/07/24 01:44:34;;;;;;;21.50;18.43;;;;;;;;;;758647;183;636224;-85
2022/07/24 01:47:00;;;;;;;22.00;18.70;;;;;;;;;;753613;184;629891;-85
2022/07/24 01:49:26;;;;;;;18.87;16.97;;;;;;;;;;760109;184;624519;-85
2022/07/24 01:51:52;;;;;;;20.30;18.20;;;;;;;;;;751107;183;622534;-86
2022/07/24 01:54:18;;;;;;;21.73;19.43;;;;;;;;;;754081;183;636507;-84
2022/07/24 01:56:43;;;;;;;21.23;18.37;;;;;;;;;;760124;183;657636;-85
2022/07/24 01:59:09;;;;;;;18.83;16.80;;;;;;;;;;758881;184;715752;-85
2022/07/24 02:01:35;;;;;;;19.93;16.80;;;;;;;;;;754390;184;658318;-86
2022/07/24 02:04:01;;;;;;;19.67;16.90;;;;;;;;;;749357;183;653146;-84
2022/07/24 02:06:27;;;;;;;19.93;16.93;;;;;;;;;;754830;181;630688;-85
2022/07/24 02:08:53;;;;;;;19.80;17.67;;;;;;;;;;762875;183;655046;-85
2022/07/24 02:11:19;;;;;;;17.37;15.47;;;;;;;;;;759761;181;809439;-84
2022/07/24 02:13:45;;;;;;;19.90;17.33;;;;;;;;;;758258;184;631570;-85
2022/07/24 02:16:10;;;;;;;19.40;17.30;;;;;;;;;;764092;181;627355;-84
2022/07/24 02:18:36;;;;;;;21.07;18.17;;;;;;;;;;759546;183;660957;-84
2022/07/24 02:21:03;;;;;;;19.10;17.10;;;;;;;;;;756448;183;657396;-84
2022/07/24 02:23:28;;;;;;;18.03;16.10;;;;;;;;;;756156;184;619474;-86
2022/07/24 02:25:54;;;;;;;18.30;15.77;;;;;;;;;;758983;180;629610;-84
2022/07/24 02:28:20;;;;;;;21.60;16.27;;;;;;;;;;758638;183;659944;-85
2022/07/24 02:30:46;;;;;;;18.87;15.80;;;;;;;;;;758303;183;646071;-85
2022/07/24 02:33:12;;;;;;;19.43;17.30;;;;;;;;;;755646;184;664664;-86
2022/07/24 02:35:37;;;;;;;18.73;16.93;;;;;;;;;;758268;183;712571;-86
2022/07/24 02:38:03;;;;;;;18.17;16.30;;;;;;;;;;752007;184;854429;-85
2022/07/24 02:40:29;;;;;;;22.80;16.40;;;;;;;;;;761294;184;654624;-84
2022/07/24 02:42:55;;;;;;;20.03;17.63;;;;;;;;;;757816;184;926396;-83
2022/07/24 02:45:21;;;;;;;18.93;16.83;;;;;;;;;;754107;184;674956;-85
2022/07/24 02:47:48;;;;;;;20.37;18.20;;;;;;;;;;754103;184;628518;-86
2022/07/24 02:50:14;;;;;;;22.17;17.90;;;;;;;;;;760713;184;614440;-84
2022/07/24 02:52:40;;;;;;;19.77;16.67;;;;;;;;;;759193;182;627679;-85
2022/07/24 02:55:06;;;;;;;20.83;17.93;;;;;;;;;;759882;182;623556;-84
2022/07/24 02:57:32;;;;;;;20.97;17.97;;;;;;;;;;759950;184;624458;-84
2022/07/24 02:59:58;;;;;;;19.03;16.97;;;;;;;;;;756068;181;640238;-84
2022/07/24 03:02:24;;;;;;;19.07;16.77;;;;;;;;;;751605;184;643872;-86
2022/07/24 03:04:50;;;;;;;21.00;16.70;;;;;;;;;;756372;184;667292;-84
2022/07/24 03:07:15;;;;;;;20.03;17.10;;;;;;;;;;752693;184;633888;-84
2022/07/24 03:09:41;;;;;;;19.77;17.77;;;;;;;;;;748699;184;637022;-86
2022/07/24 03:12:07;;;;;;;19.53;17.50;;;;;;;;;;749881;184;822526;-84
2022/07/24 03:14:33;;;;;;;21.70;16.40;;;;;;;;;;761389;181;659718;-83
2022/07/24 03:16:59;;;;;;;18.67;16.67;;;;;;;;;;750583;184;721756;-85
2022/07/24 03:19:25;;;;;;;19.13;17.13;;;;;;;;;;756792;183;773777;-83
2022/07/24 03:21:51;;;;;;;18.10;16.20;;;;;;;;;;760411;182;627474;-83
2022/07/24 03:24:17;;;;;;;18.10;16.17;;;;;;;;;;758921;184;632764;-84
2022/07/24 03:26:43;;;;;;;22.03;17.17;;;;;;;;;;760410;183;648082;-84
2022/07/24 03:29:08;;;;;;;20.80;18.00;;;;;;;;;;757106;184;642876;-84
2022/07/24 03:31:34;;;;;;;21.03;17.00;;;;;;;;;;761508;183;627769;-84
2022/07/24 03:34:01;;;;;;;21.63;17.33;;;;;;;;;;752381;183;642745;-85
2022/07/24 03:36:26;;;;;;;24.43;17.40;;;;;;;;;;758479;184;638979;-85
2022/07/24 03:38:52;;;;;;;21.87;19.70;;;;;;;;;;762170;181;616983;-85
2022/07/24 03:41:18;;;;;;;20.47;17.33;;;;;;;;;;759495;183;665780;-84
2022/07/24 03:43:44;;;;;;;19.80;17.80;;;;;;;;;;756717;184;674119;-84
2022/07/24 03:46:09;;;;;;;19.97;17.87;;;;;;;;;;759986;184;635914;-84
2022/07/24 03:48:35;;;;;;;21.90;17.77;;;;;;;;;;756859;184;669949;-85
2022/07/24 03:51:01;;;;;;;23.03;17.37;;;;;;;;;;755031;183;630080;-82
2022/07/24 03:53:27;;;;;;;23.47;19.83;;;;;;;;;;756449;184;709305;-85
2022/07/24 03:55:53;;;;;;;25.37;18.00;;;;;;;;;;751242;184;786929;-84
2022/07/24 03:58:19;;;;;;;21.57;18.60;;;;;;;;;;758818;184;646155;-85
2022/07/24 04:00:44;;;;;;;21.70;18.50;;;;;;;;;;759203;184;629487;-84
2022/07/24 04:03:10;;;;;;;22.20;17.67;;;;;;;;;;758095;184;647424;-83
2022/07/24 04:05:36;;;;;;;20.03;17.83;;;;;;;;;;755960;181;637580;-84
2022/07/24 04:08:02;;;;;;;19.33;17.33;;;;;;;;;;755057;184;644837;-86
2022/07/24 04:10:28;;;;;;;20.03;17.93;;;;;;;;;;758656;184;652791;-84
2022/07/24 04:12:54;;;;;;;22.93;18.70;;;;;;;;;;754502;183;711192;-86
2022/07/24 04:15:20;;;;;;;22.37;17.07;;;;;;;;;;752589;182;673253;-85
2022/07/24 04:17:46;;;;;;;21.70;17.83;;;;;;;;;;759745;184;664958;-83
2022/07/24 04:20:12;;;;;;;20.70;16.70;;;;;;;;;;755492;184;628025;-84
2022/07/24 04:22:38;;;;;;;20.20;17.47;;;;;;;;;;756490;184;620956;-85
2022/07/24 04:25:04;;;;;;;22.07;17.93;;;;;;;;;;759162;184;623093;-86
2022/07/24 04:27:30;;;;;;;21.13;17.60;;;;;;;;;;763062;183;660625;-84
2022/07/24 04:29:57;;;;;;;26.90;17.97;;;;;;;;;;763413;183;632967;-83
2022/07/24 04:32:21;;;;;;;23.60;18.00;;;;;;;;;;765812;181;635593;-84
2022/07/24 04:34:47;;;;;;;19.07;16.90;;;;;;;;;;761583;183;655562;-81
2022/07/24 04:37:13;;;;;;;21.43;16.53;;;;;;;;;;754235;184;622093;-85
2022/07/24 04:39:39;;;;;;;19.33;15.33;;;;;;;;;;757751;184;654754;-85
2022/07/24 04:42:05;;;;;;;23.50;18.53;;;;;;;;;;758369;184;671621;-81
2022/07/24 04:44:30;;;;;;;18.03;16.23;;;;;;;;;;754268;184;668812;-84
2022/07/24 04:46:56;;;;;;;21.53;16.90;;;;;;;;;;758450;184;628860;-85
2022/07/24 04:49:22;;;;;;;19.98;17.87;;;;;;;;;;759160;184;816616;-84
2022/07/24 04:51:48;;;;;;;23.43;18.57;;;;;;;;;;764897;181;638376;-86
2022/07/24 04:54:14;;;;;;;25.03;18.30;;;;;;;;;;749280;183;955407;-84
2022/07/24 04:56:40;;;;;;;19.37;16.83;;;;;;;;;;754898;181;709206;-85
2022/07/24 04:59:06;;;;;;;21.27;16.70;;;;;;;;;;759765;183;666419;-84
2022/07/24 05:01:32;;;;;;;20.97;17.80;;;;;;;;;;760220;183;650545;-84
2022/07/24 05:03:58;;;;;;;22.27;18.00;;;;;;;;;;755016;184;666624;-82
2022/07/24 05:06:23;;;;;;;20.90;18.07;;;;;;;;;;757831;183;614799;-85
2022/07/24 05:08:49;;;;;;;21.03;18.83;;;;;;;;;;752862;184;780642;-83
2022/07/24 05:11:15;;;;;;;21.43;17.20;;;;;;;;;;754183;182;661861;-86
2022/07/24 05:13:41;;;;;;;22.07;18.07;;;;;;;;;;756937;184;632395;-85
2022/07/24 05:16:07;;;;;;;20.40;17.33;;;;;;;;;;755326;184;634744;-85
2022/07/24 05:18:33;;;;;;;22.40;17.13;;;;;;;;;;755287;184;789898;-83
2022/07/24 05:20:59;;;;;;;21.87;16.70;;;;;;;;;;758470;184;686479;-85
2022/07/24 05:23:25;;;;;;;17.30;15.27;;;;;;;;;;755787;183;640022;-84
2022/07/24 05:25:51;;;;;;;21.03;16.13;;;;;;;;;;760261;183;672275;-84
2022/07/24 05:28:17;;;;;;;24.23;15.53;;;;;;;;;;756687;184;684913;-84
2022/07/24 05:30:43;;;;;;;19.23;15.60;;;;;;;;;;754674;184;1129072;-85
2022/07/24 05:33:09;;;;;;;20.13;15.60;;;;;;;;;;757558;183;648618;-83
2022/07/24 05:35:35;;;;;;;17.93;15.63;;;;;;;;;;759232;183;647621;-85
2022/07/24 05:38:09;;;;;;;17.13;15.33;;;;;;;;;;757076;184;682265;-85
2022/07/24 05:40:35;;;;;;;18.00;15.50;;;;;;;;;;762829;181;826155;-85
2022/07/24 05:43:00;;;;;;;20.20;16.47;;;;;;;;;;763437;182;657918;-83
2022/07/24 05:45:26;;;;;;;17.07;15.13;;;;;;;;;;757809;183;634770;-82
2022/07/24 05:47:52;;;;;;;17.07;14.87;;;;;;;;;;759602;184;679800;-83
2022/07/24 05:50:18;;;;;;;17.30;14.87;;;;;;;;;;759187;184;731969;-85
2022/07/24 05:52:44;;;;;;;15.00;13.40;;;;;;;;;;760572;182;682800;-84
2022/07/24 05:55:10;;;;;;;16.60;13.90;;;;;;;;;;761721;183;779190;-83
2022/07/24 05:57:36;;;;;;;14.53;13.03;;;;;;;;;;754641;184;649548;-84
2022/07/24 06:00:02;;;;;;;15.37;11.73;;;;;;;;;;755689;181;762363;-83
2022/07/24 06:02:28;;;;;;;14.33;12.13;;;;;;;;;;756349;181;771910;-90
2022/07/24 06:04:54;;;;;;;16.40;11.30;;;;;;;;;;775606;174;685606;-59
2022/07/24 06:07:20;;;;;;;13.90;12.40;;;;;;;;;;758462;180;918516;-57
2022/07/24 06:09:46;;;;;;;15.27;11.80;;;;;;;;;;758914;182;921076;-56
2022/07/24 06:12:12;;;;;;;21.27;12.00;;;;;;;;;;781772;179;660991;-57
2022/07/24 06:14:38;;;;;;;14.80;12.10;;;;;;;;;;768133;182;621859;-57
2022/07/24 06:17:03;;;;;;;13.13;11.40;;;;;;;;;;767150;180;738568;-57
2022/07/24 06:19:29;;;;;;;13.10;11.60;;;;;;;;;;778917;179;614466;-58
2022/07/24 06:21:55;;;;;;;14.30;11.93;;;;;;;;;;744711;187;894931;-57
2022/07/24 06:24:21;;;;;;;18.27;10.53;;;;;;;;;;757157;186;637539;-59
2022/07/24 06:26:47;;;;;;;13.93;11.30;;;;;;;;;;765566;183;624922;-58
2022/07/24 06:29:13;;;;;;;15.73;12.73;;;;;;;;;;756437;184;625266;-60
2022/07/24 06:31:39;;;;;;;11.98;10.45;;;;;;;;;;766652;182;713137;-57
2022/07/24 06:34:05;;;;;;;14.40;11.60;;;;;;;;;;763763;182;646935;-63
2022/07/24 06:36:31;;;;;;;14.13;11.37;;;;;;;;;;779426;179;634539;-60
2022/07/24 06:38:56;;;;;;;13.57;11.03;;;;;;;;;;767435;180;631599;-58
2022/07/24 06:41:22;;;;;;;12.63;10.67;;;;;;;;;;772714;181;620083;-57
2022/07/24 06:43:48;;;;;;;11.80;9.27;;;;;;;;;;768428;180;631680;-57
2022/07/24 06:46:14;;;;;;;11.87;10.63;;;;;;;;;;760420;182;630861;-58
2022/07/24 06:48:40;;;;;;;14.50;10.93;;;;;;;;;;759182;183;646029;-59
2022/07/24 06:51:06;;;;;;;14.40;10.47;;;;;;;;;;769478;180;648564;-57
2022/07/24 06:53:32;;;;;;;9.37;7.20;;;;;;;;;;771943;179;699102;-57
2022/07/24 06:55:57;;;;;;;7.40;5.97;;;;;;;;;;769546;180;632771;-59
2022/07/24 06:58:23;;;;;;;9.00;6.40;;;;;;;;;;768992;180;618934;-57
2022/07/24 07:00:49;;;;;;;8.47;6.33;;;;;;;;;;779241;180;626462;-59
2022/07/24 07:03:15;;;;;;;7.33;5.43;;;;;;;;;;779512;180;629243;-59
2022/07/24 07:05:41;;;;;;;6.70;6.00;;;;;;;;;;777252;177;816658;-57
2022/07/24 07:08:07;;;;;;;6.90;5.77;;;;;;;;;;786706;177;817198;-58
2022/07/24 07:10:32;;;;;;;8.57;6.07;;;;;;;;;;780691;176;634523;-56
2022/07/24 07:12:59;;;;;;;7.00;5.80;;;;;;;;;;782985;176;626347;-60
2022/07/24 07:15:24;;;;;;;7.50;5.90;;;;;;;;;;775136;180;624545;-60
2022/07/24 07:17:50;;;;;;;7.13;4.97;;;;;;;;;;766367;180;624222;-56
2022/07/24 07:20:16;;;;;;;8.00;5.83;;;;;;;;;;757316;184;629335;-57
2022/07/24 07:22:42;;;;;;;8.00;5.13;;;;;;;;;;760798;183;630936;-56
2022/07/24 07:25:08;;;;;;;11.20;5.37;;;;;;;;;;767452;180;635741;-55
2022/07/24 07:27:33;;;;;;;7.43;5.00;;;;;;;;;;758988;183;634759;-60
2022/07/24 07:29:59;;;;;;;7.67;5.67;;;;;;;;;;762541;183;726600;-57
2022/07/24 07:32:25;;;;;;;6.00;5.40;;;;;;;;;;766316;183;613932;-58
2022/07/24 07:34:51;;;;;;;8.33;5.63;;;;;;;;;;767299;183;622852;-56
2022/07/24 07:37:17;;;;;;;7.72;5.90;;;;;;;;;;763517;183;639507;-57
2022/07/24 07:39:43;;;;;;;7.50;5.40;;;;;;;;;;767336;183;627986;-59
2022/07/24 07:42:09;;;;;;;8.33;6.83;;;;;;;;;;771307;177;626689;-59
2022/07/24 07:44:34;;;;;;;8.13;5.20;;;;;;;;;;770628;180;634170;-56
2022/07/24 07:47:00;;;;;;;6.20;5.43;;;;;;;;;;766646;183;626606;-59
2022/07/24 07:49:27;;;;;;;7.37;5.23;;;;;;;;;;768614;182;660426;-57
2022/07/24 07:51:52;;;;;;;9.13;6.30;;;;;;;;;;770560;180;631916;-59
2022/07/24 07:54:18;;;;;;;8.07;5.30;;;;;;;;;;765941;183;629405;-59
2022/07/24 07:56:44;;;;;;;5.90;5.30;;;;;;;;;;770351;183;632220;-57
2022/07/24 07:59:10;;;;;;;7.80;5.93;;;;;;;;;;773101;179;625446;-58
2022/07/24 08:01:36;;;;;;;6.53;5.17;;;;;;;;;;765550;182;625112;-57
2022/07/24 08:04:01;;;;;;;7.97;5.40;;;;;;;;;;780458;179;616937;-57
2022/07/24 08:06:27;;;;;;;6.27;5.67;;;;;;;;;;769312;179;918440;-57
2022/07/24 08:08:53;;;;;;;7.57;5.77;;;;;;;;;;773418;179;625660;-57
2022/07/24 08:11:19;;;;;;;8.03;5.23;;;;;;;;;;785806;177;632268;-56
2022/07/24 08:13:45;;;;;;;8.77;4.80;;;;;;;;;;747616;185;627100;-58
2022/07/24 08:16:11;;;;;;;6.17;4.97;;;;;;;;;;754106;185;636570;-58
2022/07/24 08:18:36;;;;;;;9.87;5.70;;;;;;;;;;772754;180;620100;-61
2022/07/24 08:21:02;;;;;;;6.80;5.10;;;;;;;;;;778744;179;635206;-63
2022/07/24 08:23:28;;;;;;;6.33;5.00;;;;;;;;;;772608;179;633491;-62
2022/07/24 08:25:54;;;;;;;7.03;5.20;;;;;;;;;;775515;180;627524;-57
2022/07/24 08:28:22;;;;;;;9.90;5.33;;;;;;;;;;780382;179;638235;-57
2022/07/24 08:30:46;;;;;;;6.67;5.37;;;;;;;;;;771491;180;920543;-59
2022/07/24 08:33:12;;;;;;;6.15;5.32;;;;;;;;;;774565;179;642528;-57
2022/07/24 08:35:37;;;;;;;7.20;4.57;;;;;;;;;;777069;180;628606;-57
2022/07/24 08:38:03;;;;;;;6.07;5.47;;;;;;;;;;759621;183;654172;-60
2022/07/24 08:40:34;;;;;;;8.10;4.17;;;;;;;;;;769621;180;622561;-61
2022/07/24 08:43:00;;;;;;;9.97;5.10;;;;;;;;;;766590;178;622882;-61
2022/07/24 08:45:25;;;;;;;5.17;3.87;;;;;;;;;;771355;178;613175;-57
2022/07/24 08:47:50;;;;;;;6.30;4.20;;;;;;;;;;758261;182;627086;-57
2022/07/24 08:50:16;;;;;;;7.13;4.50;;;;;;;;;;762991;181;634479;-57
2022/07/24 08:52:42;;;;;;;5.23;4.37;;;;;;;;;;776489;180;635118;-57
2022/07/24 08:55:08;;;;;;;5.20;4.17;;;;;;;;;;772560;180;660147;-57
2022/07/24 08:57:34;;;;;;;6.17;4.10;;;;;;;;;;778795;177;624905;-57
2022/07/24 09:00:00;;;;;;;6.60;4.60;;;;;;;;;;788738;177;615779;-56
2022/07/24 09:02:27;;;;;;;6.60;5.10;;;;;;;;;;761395;183;624198;-57
2022/07/24 09:04:51;;;;;;;5.50;4.60;;;;;;;;;;767495;183;633914;-57
2022/07/24 09:07:17;;;;;;;5.67;4.57;;;;;;;;;;755336;184;638286;-57
2022/07/24 09:09:43;;;;;;;4.53;3.80;;;;;;;;;;774221;180;627570;-57
2022/07/24 09:12:09;;;;;;;5.40;4.77;;;;;;;;;;757184;180;632476;-57
2022/07/24 09:14:35;;;;;;;6.53;4.50;;;;;;;;;;766826;182;705856;-57
2022/07/24 09:17:01;;;;;;;5.23;3.87;;;;;;;;;;777084;180;627284;-57
2022/07/24 09:19:27;;;;;;;4.43;3.83;;;;;;;;;;765375;180;620925;-57
2022/07/24 09:21:53;;;;;;;5.07;4.33;;;;;;;;;;777178;180;620121;-57
2022/07/24 09:24:18;;;;;;;5.13;4.27;;;;;;;;;;779996;178;822689;-57
2022/07/24 09:26:47;;;;;;;8.27;5.17;;;;;;;;;;768919;182;625514;-57
2022/07/24 09:29:13;;;;;;;8.23;4.20;;;;;;;;;;753411;181;632670;-57
2022/07/24 09:31:44;;;;;;;4.40;3.90;;;;;;;;;;770692;180;621245;-56
2022/07/24 09:34:10;;;;;;;5.37;4.30;;;;;;;;;;776906;178;616606;-61
2022/07/24 09:36:38;;;;;;;5.15;3.80;;;;;;;;;;765778;182;820259;-60
2022/07/24 09:39:02;;;;;;;6.77;4.10;;;;;;;;;;769105;182;623194;-59
2022/07/24 09:41:28;;;;;;;9.02;7.45;;;;;;;;;;754108;184;629715;-59
2022/07/24 09:43:59;;;;;;;7.70;6.30;;;;;;;;;;768694;182;627002;-59
2022/07/24 09:46:26;;;;;;;5.63;4.10;;;;;;;;;;768680;180;626514;-59
2022/07/24 09:48:54;;;;;;;6.90;5.00;;;;;;;;;;764658;182;630837;-57
2022/07/24 09:51:19;;;;;;;7.23;5.03;;;;;;;;;;769743;180;740009;-60
2022/07/24 09:53:46;;;;;;;14.13;7.03;;;;;;;;;;770335;179;629478;-58
2022/07/24 09:56:13;;;;;;;25.40;16.83;;;;;;;;;;769163;180;630116;-59
2022/07/24 09:58:39;;;;;;;10.00;5.07;;;;;;;;;;767224;180;625954;-58
2022/07/24 10:01:05;;;;;;;9.37;5.33;;;;;;;;;;772788;180;628830;-58
2022/07/24 10:03:31;;;;;;;6.50;4.30;;;;;;;;;;763776;183;631289;-58
2022/07/24 10:05:56;;;;;;;29.58;19.70;;;;;;;;;;751580;183;996759;-59
2022/07/24 10:08:22;;;;;;;8.27;6.20;;;;;;;;;;774146;179;633625;-59
2022/07/24 10:10:48;;;;;;;19.07;11.30;;;;;;;;;;766958;182;633274;-58
2022/07/24 10:13:14;;;;;;;12.60;9.03;;;;;;;;;;774699;179;630813;-59
2022/07/24 10:15:40;;;;;;;7.27;5.03;;;;;;;;;;782451;179;678645;-58
2022/07/24 10:18:07;;;;;;;5.50;4.30;;;;;;;;;;780762;177;626283;-58
2022/07/24 10:20:38;;;;;;;6.63;3.83;;;;;;;;;;780635;177;646814;-59
2022/07/24 10:23:03;;;;;;;5.57;3.67;;;;;;;;;;783993;177;634541;-59
2022/07/24 10:25:29;;;;;;;28.53;14.93;;;;;;;;;;786377;177;627048;-60
2022/07/24 10:27:55;;;;;;;7.73;3.40;;;;;;;;;;780847;177;645669;-59
2022/07/24 10:30:21;;;;;;;5.27;3.90;;;;;;;;;;756164;183;655338;-60
2022/07/24 10:32:46;;;;;;;5.27;4.77;;;;;;;;;;787959;177;618868;-60
2022/07/24 10:35:13;;;;;;;9.50;6.40;;;;;;;;;;772608;180;621887;-59
2022/07/24 10:37:48;;;;;;;7.77;5.47;;;;;;;;;;764624;179;624765;-59
2022/07/24 10:40:30;;;;;;;6.23;4.87;;;;;;;;;;763994;182;616595;-59
2022/07/24 10:43:15;;;;;;;5.23;4.20;;;;;;;;;;775401;179;645502;-59
2022/07/24 10:45:45;;;;;;;13.43;8.83;;;;;;;;;;774414;179;640365;-59
2022/07/24 10:48:17;;;;;;;11.93;9.63;;;;;;;;;;773127;181;643753;-59
2022/07/24 10:50:48;;;;;;;8.20;5.00;;;;;;;;;;771095;181;620322;-58
2022/07/24 10:53:20;;;;;;;6.73;5.60;;;;;;;;;;770735;180;640184;-59
2022/07/24 10:55:46;;;;;;;5.50;4.23;;;;;;;;;;772149;180;628781;-59
2022/07/24 10:58:13;;;;;;;5.90;4.00;;;;;;;;;;770289;180;632625;-59
2022/07/24 11:00:38;;;;;;;4.70;3.43;;;;;;;;;;771976;180;643956;-59
2022/07/24 11:03:05;;;;;;;4.60;3.83;;;;;;;;;;770640;180;624029;-59
2022/07/24 11:05:33;;;;;;;6.03;3.50;;;;;;;;;;769565;180;616373;-58
2022/07/24 11:08:04;;;;;;;6.43;4.17;;;;;;;;;;772183;180;628418;-59
2022/07/24 11:10:36;;;;;;;3.87;3.47;;;;;;;;;;764728;182;632342;-59
2022/07/24 11:13:02;;;;;;;4.40;3.20;;;;;;;;;;756394;183;633006;-58
2022/07/24 11:17:59;;;;;;;4.83;3.90;;;;;;;;;;780048;177;640546;-58
2022/07/24 11:20:25;;;;;;;6.23;4.57;;;;;;;;;;789760;177;642267;-58
2022/07/24 11:22:52;;;;;;;7.03;3.60;;;;;;;;;;771717;180;623368;-58
2022/07/24 11:25:18;;;;;;;5.00;3.70;;;;;;;;;;780244;176;620812;-58
2022/07/24 11:27:44;;;;;;;6.13;3.63;;;;;;;;;;776708;179;634503;-59
2022/07/24 11:30:10;;;;;;;4.50;3.20;;;;;;;;;;773822;180;616249;-58
2022/07/24 11:32:37;;;;;;;4.00;3.30;;;;;;;;;;772212;180;639521;-58
2022/07/24 11:35:04;;;;;;;5.47;3.53;;;;;;;;;;776700;179;702143;-58
2022/07/24 11:37:28;;;;;;;4.43;3.47;;;;;;;;;;776703;178;622911;-58
2022/07/24 11:39:53;;;;;;;5.87;3.10;;;;;;;;;;771626;178;628453;-59
2022/07/24 11:42:19;;;;;;;4.47;3.30;;;;;;;;;;777038;178;641679;-59
2022/07/24 11:44:46;;;;;;;5.60;2.87;;;;;;;;;;785923;179;654796;-59
2022/07/24 11:47:13;;;;;;;6.77;2.80;;;;;;;;;;781973;176;627933;-60
2022/07/24 11:49:38;;;;;;;6.03;3.80;;;;;;;;;;783995;176;636254;-60
2022/07/24 11:52:04;;;;;;;3.23;2.83;;;;;;;;;;788119;177;676549;-59
2022/07/24 11:54:30;;;;;;;3.70;3.30;;;;;;;;;;772368;180;634602;-59
2022/07/24 11:56:56;;;;;;;5.50;3.97;;;;;;;;;;762564;179;645819;-60
2022/07/24 11:59:23;;;;;;;4.03;3.30;;;;;;;;;;763625;182;625523;-59
2022/07/24 12:01:48;;;;;;;4.00;3.40;;;;;;;;;;776035;180;641987;-59
2022/07/24 12:04:18;;;;;;;5.60;2.97;;;;;;;;;;761196;182;625257;-59
2022/07/24 12:06:44;;;;;;;4.00;3.20;;;;;;;;;;754082;184;637270;-59
2022/07/24 12:09:10;;;;;;;5.53;3.63;;;;;;;;;;787350;176;630573;-59
2022/07/24 12:11:36;;;;;;;4.73;3.40;;;;;;;;;;758973;183;657690;-60
2022/07/24 12:14:02;;;;;;;4.35;3.30;;;;;;;;;;748857;182;686484;-60
2022/07/24 12:16:28;;;;;;;4.70;3.27;;;;;;;;;;785202;179;628406;-59
2022/07/24 12:19:09;;;;;;;4.37;3.00;;;;;;;;;;768722;180;629073;-59
2022/07/24 12:21:35;;;;;;;4.20;3.13;;;;;;;;;;771292;179;653408;-59
2022/07/24 12:24:01;;;;;;;4.60;3.60;;;;;;;;;;774380;180;640555;-59
2022/07/24 12:26:27;;;;;;;5.23;3.70;;;;;;;;;;766408;183;635473;-59
2022/07/24 12:28:58;;;;;;;4.60;3.17;;;;;;;;;;784060;177;631295;-59
2022/07/24 12:31:24;;;;;;;4.50;3.50;;;;;;;;;;775176;177;617000;-60
2022/07/24 12:33:53;;;;;;;4.17;3.07;;;;;;;;;;777875;180;620846;-59
2022/07/24 12:36:19;;;;;;;4.47;3.33;;;;;;;;;;788172;177;815292;-59
2022/07/24 12:38:50;;;;;;;3.83;3.07;;;;;;;;;;783461;177;816688;-59
2022/07/24 12:41:16;;;;;;;4.50;3.37;;;;;;;;;;779629;179;815825;-60
2022/07/24 12:43:46;;;;;;;4.00;3.17;;;;;;;;;;767549;179;619486;-60
2022/07/24 12:46:11;;;;;;;4.80;3.50;;;;;;;;;;776863;179;633367;-60
2022/07/24 12:48:37;;;;;;;4.70;3.10;;;;;;;;;;790957;177;650790;-60
2022/07/24 12:51:03;;;;;;;5.40;3.50;;;;;;;;;;782295;179;630731;-60
2022/07/24 12:53:29;;;;;;;4.00;3.20;;;;;;;;;;786965;176;637815;-60
2022/07/24 12:56:02;;;;;;;3.97;3.17;;;;;;;;;;788808;177;621664;-60
2022/07/24 12:58:28;;;;;;;3.37;2.87;;;;;;;;;;783780;176;617184;-60
2022/07/24 13:00:56;;;;;;;4.90;3.03;;;;;;;;;;785715;177;625490;-60
2022/07/24 13:03:21;;;;;;;3.87;2.87;;;;;;;;;;770513;179;637560;-59
2022/07/24 13:05:51;;;;;;;3.80;3.13;;;;;;;;;;772291;182;628891;-60
2022/07/24 13:08:13;;;;;;;5.70;3.90;;;;;;;;;;776743;177;628181;-60
2022/07/24 13:10:39;;;;;;;4.00;3.30;;;;;;;;;;781233;177;619256;-59
2022/07/24 13:13:05;;;;;;;3.63;2.70;;;;;;;;;;779710;179;637562;-59
2022/07/24 13:15:31;;;;;;;4.93;3.83;;;;;;;;;;766392;182;617361;-60
2022/07/24 13:17:57;;;;;;;4.33;3.43;;;;;;;;;;775706;179;652827;-60
2022/07/24 13:20:23;;;;;;;8.00;3.50;;;;;;;;;;790025;177;625464;-60
2022/07/24 13:22:48;;;;;;;4.77;3.27;;;;;;;;;;783777;177;636968;-59
2022/07/24 13:25:14;;;;;;;5.07;3.65;;;;;;;;;;782982;177;621312;-60
2022/07/24 13:27:40;;;;;;;3.30;2.70;;;;;;;;;;785527;177;629013;-60
2022/07/24 13:30:06;;;;;;;3.67;2.77;;;;;;;;;;774393;177;651543;-60
2022/07/24 13:32:32;;;;;;;4.37;2.90;;;;;;;;;;770302;179;614181;-60
2022/07/24 13:34:58;;;;;;;5.90;3.00;;;;;;;;;;765496;182;912818;-60
2022/07/24 13:37:24;;;;;;;4.13;3.00;;;;;;;;;;766834;180;809694;-59
2022/07/24 13:39:50;;;;;;;5.00;3.70;;;;;;;;;;765188;182;819920;-59
2022/07/24 13:42:16;;;;;;;4.53;3.17;;;;;;;;;;766858;182;629284;-59
2022/07/24 13:44:42;;;;;;;5.63;3.27;;;;;;;;;;769748;183;614635;-60
2022/07/24 13:47:07;;;;;;;4.23;3.20;;;;;;;;;;765618;183;621662;-59
2022/07/24 13:49:33;;;;;;;5.10;3.27;;;;;;;;;;765371;183;636809;-59
2022/07/24 13:51:59;;;;;;;4.30;2.83;;;;;;;;;;769461;182;620041;-60
2022/07/24 13:54:25;;;;;;;6.63;3.70;;;;;;;;;;766019;183;621805;-59
2022/07/24 13:56:51;;;;;;;4.00;3.23;;;;;;;;;;764813;183;808753;-59
2022/07/24 13:59:17;;;;;;;5.63;3.17;;;;;;;;;;748162;183;620464;-58
2022/07/24 14:01:42;;;;;;;4.57;3.40;;;;;;;;;;763776;183;669016;-61
2022/07/24 14:04:08;;;;;;;5.47;3.43;;;;;;;;;;758683;183;625580;-59
2022/07/24 14:06:34;;;;;;;5.87;3.53;;;;;;;;;;755494;182;636576;-59
2022/07/24 14:09:00;;;;;;;5.77;3.70;;;;;;;;;;781967;178;621337;-59
2022/07/24 14:11:26;;;;;;;4.87;3.73;;;;;;;;;;771844;181;628940;-64
2022/07/24 14:13:52;;;;;;;6.10;3.83;;;;;;;;;;770130;182;620058;-60